Time;durP1;ratioP1;P1;durP2;ratioP2;P2;SDS_P1;SDS_P2;PMS_P1;PMS_P2;Temp;Humidity;BMP_temperature;BMP_pressure;BME280_temperature;BME280_humidity;BME280_pressure;Samples;Min_cycle;Max_cycle;Signal;HPM_P1;HPM_P2
2021/03/28 00:02:05;;;;;;;10.93;1.50;;;8.00;54.80;;;;;;5093872;28;20042;-88
2021/03/28 00:04:47;;;;;;;7.97;1.50;;;7.90;54.80;;;;;;5092677;28;20028;-87
2021/03/28 00:07:15;;;;;;;6.32;1.67;;;7.90;54.90;;;;;;5094088;28;20401;-88
2021/03/28 00:09:44;;;;;;;8.80;1.40;;;7.90;54.80;;;;;;5093552;28;20447;-88
2021/03/28 00:12:32;;;;;;;5.45;1.65;;;7.90;54.80;;;;;;5094212;28;20055;-88
2021/03/28 00:15:19;;;;;;;5.25;1.42;;;7.80;54.80;;;;;;5091638;28;20024;-88
2021/03/28 00:18:08;;;;;;;6.25;1.67;;;7.80;54.90;;;;;;5093573;28;20028;-87
2021/03/28 00:20:37;;;;;;;4.25;1.38;;;7.70;54.90;;;;;;5086647;28;20397;-88
2021/03/28 00:23:08;;;;;;;7.13;1.58;;;7.60;54.90;;;;;;5084569;28;20015;-87
2021/03/28 00:25:48;;;;;;;3.65;1.25;;;7.60;55.10;;;;;;5111974;28;20065;-88
2021/03/28 00:28:25;;;;;;;8.52;1.40;;;7.60;55.20;;;;;;5092914;28;20024;-88
2021/03/28 00:30:53;;;;;;;8.35;1.65;;;7.60;55.20;;;;;;5093734;28;20030;-87
2021/03/28 00:33:24;;;;;;;7.72;1.35;;;7.50;55.20;;;;;;5095219;28;20031;-88
2021/03/28 00:35:59;;;;;;;5.18;1.58;;;7.50;55.30;;;;;;5097784;28;20153;-88
2021/03/28 00:38:30;;;;;;;8.98;1.48;;;7.50;55.30;;;;;;5097134;28;20122;-88
2021/03/28 00:41:26;;;;;;;9.82;1.55;;;7.50;55.20;;;;;;5097901;28;20020;-87
2021/03/28 00:44:14;;;;;;;6.40;1.50;;;7.60;55.20;;;;;;5066709;28;20994;-89
2021/03/28 00:46:51;;;;;;;4.13;1.50;;;7.50;55.30;;;;;;5097144;28;20051;-88
2021/03/28 00:49:40;;;;;;;6.20;1.35;;;7.50;55.20;;;;;;5096879;28;20229;-88
2021/03/28 00:52:15;;;;;;;6.88;1.67;;;7.50;55.30;;;;;;5096201;28;20110;-88
2021/03/28 00:54:52;;;;;;;5.80;1.40;;;7.50;55.30;;;;;;5097233;28;20027;-89
2021/03/28 00:57:25;;;;;;;4.65;1.58;;;7.50;55.30;;;;;;5096130;28;20107;-88
2021/03/28 01:00:14;;;;;;;4.90;1.25;;;7.50;55.40;;;;;;5094130;28;20032;-88
2021/03/28 01:03:04;;;;;;;4.03;1.35;;;7.50;55.40;;;;;;5083632;28;20026;-88
2021/03/28 01:05:47;;;;;;;6.47;1.77;;;7.50;55.40;;;;;;5097206;28;20073;-88
2021/03/28 01:08:37;;;;;;;4.85;1.35;;;7.50;55.30;;;;;;5114389;28;20032;-88
2021/03/28 01:11:08;;;;;;;4.88;1.30;;;7.50;55.30;;;;;;5098012;28;20028;-87
2021/03/28 01:13:59;;;;;;;4.10;1.23;;;7.40;55.30;;;;;;5096038;28;20032;-87
2021/03/28 01:16:57;;;;;;;6.95;1.70;;;7.50;55.50;;;;;;5078692;28;20039;-87
2021/03/28 01:19:48;;;;;;;3.70;1.38;;;7.40;56.10;;;;;;5082943;28;20122;-88
2021/03/28 01:22:30;;;;;;;4.18;1.58;;;7.40;55.40;;;;;;5115317;28;20024;-88
2021/03/28 01:25:08;;;;;;;3.20;1.33;;;7.40;55.50;;;;;;5096547;28;20081;-88
2021/03/28 01:27:43;;;;;;;7.68;1.88;;;7.30;55.50;;;;;;5113520;28;20047;-88
2021/03/28 01:30:34;;;;;;;4.35;1.27;;;7.30;55.50;;;;;;5093908;28;20044;-87
2021/03/28 01:33:07;;;;;;;14.57;3.80;;;7.30;55.50;;;;;;5067777;28;20473;-88
2021/03/28 01:35:38;;;;;;;;;;;7.20;55.60;;;;;;5096768;28;20049;-88
2021/03/28 01:38:11;;;;;;;9.43;2.72;;;7.20;55.40;;;;;;5096810;28;20426;-87
2021/03/28 01:40:37;;;;;;;4.90;1.70;;;7.10;55.90;;;;;;5096183;28;20046;-87
2021/03/28 01:43:25;;;;;;;6.32;1.75;;;7.10;55.90;;;;;;5096122;28;20436;-88
2021/03/28 01:45:55;;;;;;;16.40;4.10;;;7.10;56.10;;;;;;5096555;28;20035;-87
2021/03/28 01:48:24;;;;;;;21.17;6.18;;;7.20;56.10;;;;;;5114254;28;20022;-87
2021/03/28 01:51:25;;;;;;;15.65;4.88;;;7.10;56.10;;;;;;5096238;28;20371;-88
2021/03/28 01:53:57;;;;;;;12.80;4.07;;;7.10;56.20;;;;;;5086373;28;20089;-88
2021/03/28 01:56:50;;;;;;;13.30;3.63;;;7.00;56.30;;;;;;5107500;28;20019;-87
2021/03/28 01:59:34;;;;;;;4.20;1.95;;;7.00;56.50;;;;;;5087382;28;20364;-87
2021/03/28 02:02:19;;;;;;;5.18;1.67;;;7.00;57.10;;;;;;5094179;28;20036;-87
2021/03/28 02:05:04;;;;;;;9.48;1.85;;;7.00;56.60;;;;;;5113685;28;20508;-87
2021/03/28 02:07:39;;;;;;;8.30;1.88;;;7.10;56.70;;;;;;5095715;28;20043;-88
2021/03/28 02:10:30;;;;;;;7.95;1.80;;;7.10;56.70;;;;;;5095753;28;20020;-88
2021/03/28 02:13:00;;;;;;;5.30;1.60;;;7.10;56.60;;;;;;5095151;28;20058;-87
2021/03/28 02:15:32;;;;;;;7.95;1.80;;;7.10;56.60;;;;;;5112817;28;20023;-87
2021/03/28 02:18:19;;;;;;;7.50;1.80;;;7.10;56.60;;;;;;5095676;28;20485;-87
2021/03/28 02:21:09;;;;;;;6.72;1.63;;;7.10;56.70;;;;;;5075915;28;20114;-87
2021/03/28 02:24:20;;;;;;;4.25;1.60;;;7.10;56.70;;;;;;5094429;28;20027;-87
2021/03/28 02:27:20;;;;;;;5.68;1.92;;;7.10;56.50;;;;;;5092329;28;20485;-87
2021/03/28 02:29:59;;;;;;;7.00;1.85;;;7.00;56.50;;;;;;5060605;28;20032;-87
2021/03/28 02:32:32;;;;;;;7.40;1.80;;;7.00;56.70;;;;;;5114344;28;20024;-87
2021/03/28 02:35:11;;;;;;;7.47;1.85;;;6.90;56.80;;;;;;5094508;28;20034;-87
2021/03/28 02:38:07;;;;;;;6.45;1.92;;;6.90;57.00;;;;;;5095770;28;20435;-87
2021/03/28 02:40:52;;;;;;;3.63;1.67;;;6.90;57.20;;;;;;5085599;28;20164;-87
2021/03/28 02:43:28;;;;;;;4.10;1.55;;;6.90;57.20;;;;;;5095535;28;20366;-87
2021/03/28 02:46:13;;;;;;;7.65;1.67;;;6.90;57.30;;;;;;5112980;28;20024;-87
2021/03/28 02:48:57;;;;;;;11.25;1.90;;;7.00;57.30;;;;;;5082519;28;20124;-87
2021/03/28 02:51:36;;;;;;;8.38;1.90;;;7.00;57.20;;;;;;5094758;28;20020;-87
2021/03/28 02:54:08;;;;;;;8.70;1.73;;;7.00;57.30;;;;;;5096802;28;20031;-87
2021/03/28 02:57:12;;;;;;;4.68;1.48;;;7.00;57.40;;;;;;5094893;28;20032;-87
2021/03/28 03:00:24;;;;;;;6.47;1.90;;;6.90;57.20;;;;;;5113839;28;20068;-87
2021/03/28 03:03:08;;;;;;;10.05;2.28;;;6.90;57.20;;;;;;5131092;22;20520;-84
2021/03/28 03:05:33;;;;;;;6.20;1.75;;;6.90;57.30;;;;;;5083273;28;20040;-84
2021/03/28 03:08:15;;;;;;;6.38;1.67;;;6.90;57.30;;;;;;5081160;28;20013;-86
2021/03/28 03:10:51;;;;;;;3.88;1.77;;;6.90;57.50;;;;;;5098200;28;20030;-85
2021/03/28 03:13:35;;;;;;;6.90;1.58;;;6.90;57.60;;;;;;5062449;28;20024;-85
2021/03/28 03:16:08;;;;;;;5.15;1.52;;;6.90;58.10;;;;;;5062379;28;20128;-85
2021/03/28 03:18:55;;;;;;;13.27;2.10;;;6.90;57.60;;;;;;5080944;28;20020;-84
2021/03/28 03:21:53;;;;;;;5.80;1.83;;;6.90;57.60;;;;;;5080622;28;20025;-84
2021/03/28 03:24:31;;;;;;;4.72;1.75;;;6.90;57.60;;;;;;5058322;28;20025;-84
2021/03/28 03:27:28;;;;;;;6.90;2.45;;;6.90;57.60;;;;;;5062158;28;20444;-85
2021/03/28 03:30:15;;;;;;;9.40;2.45;;;6.80;57.70;;;;;;5061539;28;20052;-85
2021/03/28 03:32:50;;;;;;;7.22;1.65;;;6.80;57.80;;;;;;5063198;28;20027;-85
2021/03/28 03:35:37;;;;;;;6.18;2.00;;;6.80;57.90;;;;;;5056447;28;20024;-84
2021/03/28 03:38:21;;;;;;;5.47;1.90;;;6.80;57.90;;;;;;5056659;28;20119;-84
2021/03/28 03:41:24;;;;;;;4.38;1.85;;;6.80;58.00;;;;;;5056514;28;20534;-85
2021/03/28 03:44:29;;;;;;;7.38;1.73;;;6.80;57.90;;;;;;5012475;28;20048;-84
2021/03/28 03:47:00;;;;;;;6.82;2.03;;;6.80;58.10;;;;;;4999914;28;20164;-84
2021/03/28 03:49:42;;;;;;;7.80;2.20;;;6.80;58.20;;;;;;5047520;28;20028;-85
2021/03/28 03:52:52;;;;;;;9.43;1.93;;;6.80;58.20;;;;;;5082460;28;20027;-86
2021/03/28 03:55:50;;;;;;;7.03;1.98;;;6.80;58.20;;;;;;5010983;28;20177;-85
2021/03/28 03:58:33;;;;;;;4.13;1.45;;;6.80;58.20;;;;;;5028749;28;20079;-86
2021/03/28 04:01:08;;;;;;;8.40;2.03;;;6.80;58.30;;;;;;5056931;28;20033;-86
2021/03/28 04:03:57;;;;;;;9.38;1.80;;;6.80;58.30;;;;;;5053643;28;20465;-86
2021/03/28 04:06:45;;;;;;;5.22;1.92;;;6.80;58.30;;;;;;5060051;28;20113;-86
2021/03/28 04:09:35;;;;;;;4.80;1.85;;;6.90;58.30;;;;;;5070735;28;20025;-87
2021/03/28 04:12:18;;;;;;;3.47;1.50;;;6.90;58.40;;;;;;5082749;28;20128;-87
2021/03/28 04:15:01;;;;;;;8.68;1.90;;;6.90;58.40;;;;;;5081383;28;20024;-85
2021/03/28 04:17:46;;;;;;;12.93;1.70;;;6.90;58.50;;;;;;5060467;28;20032;-86
2021/03/28 04:20:31;;;;;;;8.32;1.58;;;7.00;58.50;;;;;;5067528;28;20051;-83
2021/03/28 04:23:18;;;;;;;4.35;1.80;;;7.00;58.60;;;;;;5066133;28;20055;-85
2021/03/28 04:25:59;;;;;;;6.10;1.55;;;7.10;58.50;;;;;;5063185;28;20017;-86
2021/03/28 04:28:44;;;;;;;5.22;1.80;;;7.10;58.40;;;;;;5070615;28;20024;-85
2021/03/28 04:31:41;;;;;;;7.57;1.67;;;7.10;58.30;;;;;;5058058;28;20043;-84
2021/03/28 04:34:21;;;;;;;7.03;1.65;;;7.20;58.30;;;;;;5054555;28;20032;-85
2021/03/28 04:37:16;;;;;;;7.25;2.00;;;7.20;58.30;;;;;;5075646;28;20081;-86
2021/03/28 04:39:50;;;;;;;4.07;1.50;;;7.20;58.30;;;;;;5076089;28;20047;-84
2021/03/28 04:42:50;;;;;;;5.00;1.75;;;7.20;58.20;;;;;;5057311;28;20036;-84
2021/03/28 04:45:34;;;;;;;5.25;1.60;;;7.20;58.20;;;;;;5062379;28;20037;-84
2021/03/28 04:48:18;;;;;;;3.30;1.67;;;7.20;58.40;;;;;;5053144;28;20124;-84
2021/03/28 04:50:50;;;;;;;6.03;1.50;;;7.10;58.40;;;;;;5045509;28;20105;-85
2021/03/28 04:53:57;;;;;;;7.00;1.80;;;7.10;58.40;;;;;;5057289;28;20394;-84
2021/03/28 04:56:42;;;;;;;5.57;1.55;;;7.10;58.30;;;;;;5075138;28;20040;-84
2021/03/28 04:59:10;;;;;;;6.38;1.90;;;7.10;58.50;;;;;;5058466;28;20055;-85
2021/03/28 05:01:54;;;;;;;4.68;1.65;;;7.10;58.50;;;;;;5057919;28;20036;-84
2021/03/28 05:05:17;;;;;;;4.45;1.45;;;7.10;58.50;;;;;;5059289;28;20051;-84
2021/03/28 05:08:21;;;;;;;3.95;1.42;;;7.10;58.90;;;;;;4999438;28;20524;-84
2021/03/28 05:11:08;;;;;;;5.35;1.88;;;7.10;58.30;;;;;;5011340;28;20040;-84
2021/03/28 05:13:58;;;;;;;8.02;2.10;;;7.10;58.40;;;;;;5054604;28;20043;-85
2021/03/28 05:16:26;;;;;;;4.53;1.77;;;7.10;58.50;;;;;;5059716;28;20035;-84
2021/03/28 05:19:32;;;;;;;8.60;2.13;;;7.00;58.50;;;;;;5061911;28;20090;-83
2021/03/28 05:22:16;;;;;;;4.70;1.80;;;7.10;58.70;;;;;;5064627;28;20157;-85
2021/03/28 05:25:20;;;;;;;9.43;1.85;;;7.00;58.70;;;;;;5066269;28;20062;-85
2021/03/28 05:28:02;;;;;;;5.07;1.63;;;7.00;58.70;;;;;;5063002;28;20422;-84
2021/03/28 05:30:46;;;;;;;4.93;1.52;;;7.00;58.80;;;;;;5064669;28;20111;-85
2021/03/28 05:33:33;;;;;;;5.70;1.67;;;7.10;58.80;;;;;;5064002;28;20032;-84
2021/03/28 05:36:10;;;;;;;3.80;1.70;;;7.10;58.90;;;;;;5058504;28;20050;-85
2021/03/28 05:38:55;;;;;;;8.48;1.73;;;7.10;58.90;;;;;;5081721;28;20054;-85
2021/03/28 05:42:07;;;;;;;14.50;6.80;;;7.10;58.80;;;;;;5063495;28;20024;-84
2021/03/28 05:45:17;;;;;;;3.83;1.58;;;7.10;58.80;;;;;;5057732;28;20025;-85
2021/03/28 05:48:03;;;;;;;7.72;1.80;;;7.10;58.60;;;;;;5062615;28;20475;-84
2021/03/28 05:50:35;;;;;;;8.23;1.80;;;7.10;58.70;;;;;;5073259;28;20032;-84
2021/03/28 05:53:20;;;;;;;6.05;1.98;;;7.10;58.80;;;;;;5062440;28;20389;-85
2021/03/28 05:56:19;;;;;;;4.95;1.67;;;7.10;58.90;;;;;;5042285;28;20029;-85
2021/03/28 05:59:30;;;;;;;4.63;1.80;;;7.20;58.90;;;;;;5056517;28;20051;-85
2021/03/28 06:02:26;;;;;;;5.93;2.40;;;7.20;58.80;;;;;;5054060;28;20483;-84
2021/03/28 06:05:07;;;;;;;6.97;1.75;;;7.20;58.70;;;;;;5062100;28;20021;-83
2021/03/28 06:08:02;;;;;;;5.18;1.77;;;7.20;58.90;;;;;;5059322;28;20021;-85
2021/03/28 06:11:01;;;;;;;7.05;1.80;;;7.20;58.80;;;;;;5022305;28;20041;-84
2021/03/28 06:14:09;;;;;;;4.97;1.60;;;7.30;58.90;;;;;;5077261;28;20035;-85
2021/03/28 06:16:53;;;;;;;3.00;1.50;;;7.20;58.90;;;;;;5024289;28;20134;-84
2021/03/28 06:19:45;;;;;;;5.13;1.75;;;7.20;59.00;;;;;;5061791;28;20035;-84
2021/03/28 06:22:29;;;;;;;6.10;2.15;;;7.30;59.50;;;;;;5031070;28;20048;-83
2021/03/28 06:25:19;;;;;;;7.68;1.90;;;7.30;59.00;;;;;;5063294;28;20031;-85
2021/03/28 06:28:16;;;;;;;7.50;2.15;;;7.40;59.00;;;;;;5062788;28;20036;-84
2021/03/28 06:31:28;;;;;;;6.55;1.83;;;7.40;59.10;;;;;;5045032;28;20029;-85
2021/03/28 06:34:11;;;;;;;7.10;1.63;;;7.40;59.10;;;;;;5050280;28;20043;-83
2021/03/28 06:36:43;;;;;;;6.82;1.88;;;7.50;59.00;;;;;;5073283;28;20043;-84
2021/03/28 06:39:34;;;;;;;6.38;1.95;;;7.60;59.30;;;;;;5076743;28;20080;-85
2021/03/28 06:42:33;;;;;;;12.90;2.05;;;7.70;59.10;;;;;;5093196;28;20104;-86
2021/03/28 06:45:28;;;;;;;5.88;1.70;;;7.90;59.10;;;;;;5093102;28;20040;-86
2021/03/28 06:48:34;;;;;;;5.55;1.63;;;8.00;58.80;;;;;;5072974;28;20025;-86
2021/03/28 06:51:33;;;;;;;4.30;1.48;;;8.20;58.60;;;;;;5072263;28;20040;-87
2021/03/28 06:54:34;;;;;;;3.50;1.60;;;8.40;58.40;;;;;;5069273;28;20021;-86
2021/03/28 06:57:14;;;;;;;2.83;1.25;;;8.50;58.00;;;;;;5081078;28;20028;-86
2021/03/28 07:00:08;;;;;;;5.60;1.35;;;8.60;58.00;;;;;;5063081;28;20033;-86
2021/03/28 07:02:51;;;;;;;4.43;1.40;;;8.70;57.80;;;;;;5045799;28;20029;-85
2021/03/28 07:05:23;;;;;;;7.53;1.70;;;8.80;57.80;;;;;;5045984;28;20021;-85
2021/03/28 07:08:19;;;;;;;7.68;1.80;;;8.90;57.70;;;;;;5065841;28;20025;-85
2021/03/28 07:10:57;;;;;;;7.47;1.77;;;9.00;57.70;;;;;;5064668;28;20029;-84
2021/03/28 07:13:34;;;;;;;6.50;1.60;;;9.00;57.50;;;;;;5080640;28;20398;-85
2021/03/28 07:16:35;;;;;;;9.93;2.33;;;9.10;57.30;;;;;;5063401;28;20081;-84
2021/03/28 07:19:35;;;;;;;7.20;1.58;;;9.10;57.20;;;;;;5060162;28;20031;-85
2021/03/28 07:22:21;;;;;;;5.20;1.98;;;9.00;57.30;;;;;;5079985;28;20043;-85
2021/03/28 07:25:08;;;;;;;5.22;1.65;;;9.00;57.40;;;;;;5078054;28;20047;-86
2021/03/28 07:27:56;;;;;;;7.53;1.80;;;9.10;57.30;;;;;;5062675;28;20032;-85
2021/03/28 07:30:59;;;;;;;7.95;1.75;;;9.20;57.30;;;;;;5082088;28;20084;-86
2021/03/28 07:34:02;;;;;;;6.18;1.70;;;9.20;57.00;;;;;;5076893;28;20039;-86
2021/03/28 07:37:22;;;;;;;5.72;1.58;;;9.30;57.00;;;;;;5089910;28;20009;-86
2021/03/28 07:40:17;;;;;;;6.45;2.28;;;9.40;56.90;;;;;;5079710;28;20032;-86
2021/03/28 07:43:07;;;;;;;10.13;1.80;;;9.60;56.70;;;;;;5093856;28;20036;-85
2021/03/28 07:46:19;;;;;;;8.23;2.22;;;9.80;56.60;;;;;;5065567;28;20013;-86
2021/03/28 07:49:22;;;;;;;5.22;1.50;;;10.00;56.10;;;;;;5064597;28;20115;-85
2021/03/28 07:52:11;;;;;;;8.57;2.03;;;10.10;56.20;;;;;;5055954;28;20036;-85
2021/03/28 07:54:45;;;;;;;9.23;1.80;;;10.20;55.90;;;;;;5062112;28;20024;-85
2021/03/28 07:57:42;;;;;;;8.77;1.70;;;10.10;55.50;;;;;;5063754;28;20496;-84
2021/03/28 08:00:23;;;;;;;8.50;2.08;;;10.00;55.70;;;;;;5061519;28;20040;-85
2021/03/28 08:02:51;;;;;;;5.25;1.40;;;10.00;55.80;;;;;;5076500;28;20541;-85
2021/03/28 08:05:29;;;;;;;5.13;1.73;;;10.00;55.70;;;;;;5087071;28;20082;-85
2021/03/28 08:08:17;;;;;;;7.00;1.90;;;10.10;55.70;;;;;;5059357;28;20021;-83
2021/03/28 08:11:03;;;;;;;6.13;1.60;;;10.20;55.70;;;;;;5038723;28;20123;-84
2021/03/28 08:13:38;;;;;;;6.15;1.67;;;10.30;55.40;;;;;;5076895;28;20025;-83
2021/03/28 08:16:39;;;;;;;5.07;1.52;;;10.40;55.60;;;;;;5059619;28;20170;-84
2021/03/28 08:19:43;;;;;;;8.57;1.45;;;10.50;55.50;;;;;;5063314;28;20025;-84
2021/03/28 08:22:41;;;;;;;9.02;1.65;;;10.60;55.40;;;;;;5022426;28;20037;-85
2021/03/28 08:25:22;;;;;;;6.32;2.03;;;10.70;55.20;;;;;;5061379;28;20036;-85
2021/03/28 08:27:51;;;;;;;7.07;2.10;;;10.90;54.70;;;;;;5061957;28;20032;-85
2021/03/28 08:30:23;;;;;;;6.93;2.00;;;11.80;53.80;;;;;;5060955;28;20097;-84
2021/03/28 08:33:16;;;;;;;5.40;1.92;;;12.50;52.60;;;;;;5065221;28;20036;-85
2021/03/28 08:36:14;;;;;;;6.65;2.00;;;13.10;51.50;;;;;;5076818;28;20040;-85
2021/03/28 08:39:07;;;;;;;5.50;1.70;;;13.90;49.90;;;;;;5080729;28;20017;-85
2021/03/28 08:41:38;;;;;;;5.97;1.30;;;13.80;49.50;;;;;;5083383;28;20054;-86
2021/03/28 08:44:26;;;;;;;7.00;2.53;;;14.00;49.30;;;;;;5056821;28;20056;-84
2021/03/28 08:47:16;;;;;;;10.82;2.38;;;14.40;49.10;;;;;;5063191;28;20111;-83
2021/03/28 08:49:57;;;;;;;5.60;1.60;;;14.90;48.30;;;;;;5075891;28;20051;-85
2021/03/28 08:52:42;;;;;;;6.47;1.40;;;15.40;46.40;;;;;;5066773;28;20056;-85
2021/03/28 08:55:32;;;;;;;10.18;1.73;;;15.90;45.40;;;;;;5070513;28;20052;-86
2021/03/28 08:58:13;;;;;;;4.15;1.30;;;16.20;44.70;;;;;;5072461;28;20029;-85
2021/03/28 09:01:14;;;;;;;8.82;1.60;;;16.60;44.20;;;;;;5057512;28;20119;-85
2021/03/28 09:04:12;;;;;;;5.15;1.40;;;16.80;42.30;;;;;;5077019;28;20040;-88
2021/03/28 09:06:55;;;;;;;9.52;1.83;;;17.20;43.00;;;;;;5070277;28;20049;-85
2021/03/28 09:09:53;;;;;;;6.13;1.48;;;17.70;41.80;;;;;;5054035;28;20199;-84
2021/03/28 09:12:25;;;;;;;6.47;1.63;;;18.00;40.90;;;;;;5042701;28;20044;-87
2021/03/28 09:15:02;;;;;;;6.47;1.30;;;18.20;39.00;;;;;;5070403;28;20112;-87
2021/03/28 09:17:45;;;;;;;9.05;1.52;;;18.40;39.10;;;;;;5062623;28;20131;-88
2021/03/28 09:20:49;;;;;;;6.45;1.60;;;18.60;39.30;;;;;;5065886;28;20025;-87
2021/03/28 09:23:21;;;;;;;6.07;1.33;;;18.70;38.10;;;;;;5059888;28;20028;-86
2021/03/28 09:26:06;;;;;;;3.97;1.10;;;18.80;38.20;;;;;;5066448;28;20029;-86
2021/03/28 09:29:09;;;;;;;3.47;1.00;;;19.00;37.90;;;;;;5065892;28;20025;-85
2021/03/28 09:31:52;;;;;;;2.78;1.10;;;19.40;38.40;;;;;;5081827;28;20032;-86
2021/03/28 09:34:24;;;;;;;3.53;1.20;;;19.10;37.70;;;;;;5071111;28;20037;-86
2021/03/28 09:37:27;;;;;;;8.82;1.63;;;19.10;36.40;;;;;;5044440;28;20105;-85
2021/03/28 09:40:02;;;;;;;4.70;1.10;;;18.90;36.50;;;;;;5046799;28;20047;-86
2021/03/28 09:43:05;;;;;;;6.68;2.80;;;18.80;37.30;;;;;;5062425;28;20032;-85
2021/03/28 09:45:50;;;;;;;5.85;1.67;;;18.70;37.60;;;;;;5079499;28;20071;-85
2021/03/28 09:48:40;;;;;;;6.85;1.60;;;18.50;36.40;;;;;;5062803;28;20108;-85
2021/03/28 09:51:15;;;;;;;3.08;1.25;;;18.10;37.10;;;;;;5110280;22;20089;-65
2021/03/28 09:54:06;;;;;;;3.50;1.92;;;17.70;36.70;;;;;;5067494;28;20022;-64
2021/03/28 09:57:00;;;;;;;9.00;4.05;;;17.10;37.80;;;;;;5061576;28;20039;-65
2021/03/28 09:59:44;;;;;;;6.97;1.38;;;16.90;38.70;;;;;;5063966;28;20016;-65
2021/03/28 10:02:44;;;;;;;4.65;1.00;;;16.50;37.10;;;;;;5044743;28;20029;-64
2021/03/28 10:05:26;;;;;;;9.38;1.55;;;16.10;38.80;;;;;;5034482;28;20025;-65
2021/03/28 10:08:20;;;;;;;4.05;1.25;;;15.90;39.00;;;;;;5053698;28;20329;-64
2021/03/28 10:11:00;;;;;;;3.47;1.00;;;15.90;39.90;;;;;;5042644;28;20515;-66
2021/03/28 10:14:02;;;;;;;1.95;1.05;;;16.00;40.20;;;;;;5035364;28;20063;-66
2021/03/28 10:16:46;;;;;;;2.95;0.98;;;16.00;38.50;;;;;;5035592;28;20434;-64
2021/03/28 10:19:35;;;;;;;4.15;0.95;;;15.90;38.40;;;;;;5046611;28;20036;-64
2021/03/28 10:22:43;;;;;;;5.47;1.08;;;15.60;38.60;;;;;;5058025;28;20028;-65
2021/03/28 10:25:29;;;;;;;4.18;1.25;;;15.40;37.90;;;;;;5034763;28;20025;-65
2021/03/28 10:28:20;;;;;;;2.50;1.00;;;15.40;38.60;;;;;;5035310;28;20033;-64
2021/03/28 10:31:05;;;;;;;4.07;1.30;;;15.40;39.30;;;;;;5041181;28;20401;-66
2021/03/28 10:33:49;;;;;;;5.03;1.33;;;15.50;38.80;;;;;;5054911;28;20384;-64
2021/03/28 10:36:27;;;;;;;3.22;1.05;;;15.60;39.90;;;;;;5054730;28;20025;-64
2021/03/28 10:39:18;;;;;;;5.50;1.50;;;15.70;38.60;;;;;;5052999;28;20037;-64
2021/03/28 10:42:17;;;;;;;5.95;1.67;;;15.60;39.20;;;;;;5054079;28;20134;-64
2021/03/28 10:45:14;;;;;;;4.13;1.20;;;15.70;39.70;;;;;;5053809;28;20025;-65
2021/03/28 10:48:14;;;;;;;3.22;1.38;;;16.00;39.70;;;;;;5054582;28;20032;-65
2021/03/28 10:51:18;;;;;;;3.40;1.20;;;16.20;39.00;;;;;;5055030;28;20509;-65
2021/03/28 10:53:55;;;;;;;5.72;1.40;;;16.20;38.80;;;;;;5018511;28;20047;-64
2021/03/28 10:56:39;;;;;;;3.85;1.60;;;16.30;38.40;;;;;;5054256;28;20063;-64
2021/03/28 10:59:37;;;;;;;6.53;1.40;;;16.30;38.40;;;;;;5054230;28;20027;-65
2021/03/28 11:02:21;;;;;;;5.15;1.40;;;16.30;38.30;;;;;;5053741;28;20114;-65
2021/03/28 11:05:12;;;;;;;3.38;1.35;;;16.30;38.00;;;;;;5052189;28;20027;-64
2021/03/28 11:07:56;;;;;;;4.35;1.20;;;16.20;38.10;;;;;;5048161;28;20119;-64
2021/03/28 11:10:46;;;;;;;2.33;1.10;;;16.20;37.40;;;;;;5052620;28;20158;-65
2021/03/28 11:13:18;;;;;;;2.47;1.00;;;16.20;37.60;;;;;;5055433;28;20395;-65
2021/03/28 11:16:04;;;;;;;1.90;0.90;;;16.40;37.50;;;;;;5050656;28;20032;-65
2021/03/28 11:18:39;;;;;;;3.90;1.17;;;16.40;37.30;;;;;;5052149;28;20124;-64
2021/03/28 11:21:33;;;;;;;5.70;1.52;;;16.60;36.60;;;;;;5050178;28;20095;-64
2021/03/28 11:24:22;;;;;;;4.22;0.90;;;16.50;35.70;;;;;;5046885;28;20048;-66
2021/03/28 11:27:09;;;;;;;4.93;1.20;;;16.40;36.20;;;;;;5055664;28;20027;-65
2021/03/28 11:29:47;;;;;;;4.68;1.42;;;16.30;36.00;;;;;;5042121;28;20056;-64
2021/03/28 11:32:51;;;;;;;4.75;1.20;;;16.30;36.90;;;;;;5070087;28;20032;-64
2021/03/28 11:35:37;;;;;;;4.25;1.38;;;16.40;36.60;;;;;;5051755;28;20123;-65
2021/03/28 11:38:27;;;;;;;4.10;1.40;;;16.40;36.50;;;;;;5053126;28;20530;-65
2021/03/28 11:41:11;;;;;;;6.82;1.38;;;16.60;36.50;;;;;;5053054;28;20032;-64
2021/03/28 11:43:52;;;;;;;1.95;1.00;;;16.60;36.10;;;;;;5048157;28;20024;-64
2021/03/28 11:46:30;;;;;;;5.38;1.35;;;16.80;36.70;;;;;;5041268;28;20504;-66
2021/03/28 11:48:55;;;;;;;4.30;1.30;;;16.90;35.90;;;;;;5052097;28;20024;-63
2021/03/28 11:51:37;;;;;;;4.63;1.20;;;16.90;36.20;;;;;;5053903;28;20039;-65
2021/03/28 11:54:19;;;;;;;3.40;1.63;;;16.80;35.50;;;;;;5055312;28;20029;-64
2021/03/28 11:57:05;;;;;;;4.07;1.50;;;16.80;35.60;;;;;;5047973;28;20028;-64
2021/03/28 11:59:48;;;;;;;5.15;1.23;;;16.70;36.60;;;;;;5053447;28;20599;-64
2021/03/28 12:02:13;;;;;;;3.22;1.40;;;16.80;37.00;;;;;;5041887;28;20056;-63
2021/03/28 12:04:44;;;;;;;4.55;1.45;;;17.00;37.40;;;;;;5032869;28;20025;-64
2021/03/28 12:07:36;;;;;;;2.13;1.08;;;17.20;36.50;;;;;;5033010;28;20090;-63
2021/03/28 12:10:02;;;;;;;5.33;1.60;;;17.40;36.80;;;;;;5043184;28;20025;-64
2021/03/28 12:12:31;;;;;;;3.00;1.23;;;17.40;35.30;;;;;;5053422;28;20016;-64
2021/03/28 12:15:36;;;;;;;3.08;1.20;;;17.40;35.30;;;;;;5052631;28;20025;-65
2021/03/28 12:18:20;;;;;;;3.75;1.00;;;17.40;35.70;;;;;;5040429;28;20033;-65
2021/03/28 12:20:46;;;;;;;3.05;1.33;;;17.30;34.20;;;;;;5056050;28;20029;-63
2021/03/28 12:23:26;;;;;;;4.75;1.58;;;17.20;34.50;;;;;;5063408;28;20032;-63
2021/03/28 12:26:21;;;;;;;4.05;1.60;;;17.10;34.20;;;;;;5052716;28;20070;-64
2021/03/28 12:28:47;;;;;;;6.70;1.13;;;17.20;35.00;;;;;;5054455;28;20032;-63
2021/03/28 12:31:31;;;;;;;3.42;1.23;;;17.40;35.00;;;;;;5056362;28;20029;-64
2021/03/28 12:34:03;;;;;;;3.95;1.80;;;17.50;34.90;;;;;;5056479;28;20151;-64
2021/03/28 12:36:58;;;;;;;3.30;1.25;;;17.60;34.10;;;;;;5057220;28;20032;-63
2021/03/28 12:39:33;;;;;;;5.70;1.45;;;17.70;34.00;;;;;;5056809;28;20032;-65
2021/03/28 12:42:02;;;;;;;4.07;1.10;;;17.70;34.50;;;;;;5057019;28;20029;-64
2021/03/28 12:44:38;;;;;;;6.88;1.50;;;17.70;34.00;;;;;;5056290;28;20107;-64
2021/03/28 12:47:29;;;;;;;4.97;1.30;;;17.80;33.90;;;;;;5055373;28;20518;-65
2021/03/28 12:50:13;;;;;;;2.90;1.50;;;17.80;33.50;;;;;;5056649;28;20148;-66
2021/03/28 12:52:38;;;;;;;4.55;1.10;;;17.90;33.40;;;;;;5065714;28;20024;-65
2021/03/28 12:55:13;;;;;;;2.60;1.20;;;17.80;32.50;;;;;;5075190;28;20379;-64
2021/03/28 12:57:42;;;;;;;4.13;1.25;;;17.70;32.90;;;;;;5056374;28;20158;-64
2021/03/28 13:00:26;;;;;;;2.33;1.23;;;17.70;33.60;;;;;;5053833;28;20078;-64
2021/03/28 13:02:54;;;;;;;4.40;1.30;;;17.80;33.60;;;;;;5036732;28;20509;-64
2021/03/28 13:05:34;;;;;;;5.43;1.25;;;18.00;33.60;;;;;;5036248;28;20067;-64
2021/03/28 13:08:20;;;;;;;4.07;1.25;;;18.20;33.70;;;;;;5036663;28;20025;-64
2021/03/28 13:10:46;;;;;;;4.25;1.20;;;18.50;33.60;;;;;;5044309;28;20037;-64
2021/03/28 13:13:15;;;;;;;3.97;1.58;;;18.60;32.40;;;;;;5056653;28;20174;-64
2021/03/28 13:15:49;;;;;;;4.50;1.10;;;18.60;31.80;;;;;;5055385;28;20105;-64
2021/03/28 13:18:33;;;;;;;3.92;1.30;;;18.50;32.40;;;;;;5047987;28;20059;-65
2021/03/28 13:21:16;;;;;;;6.15;1.40;;;18.60;32.60;;;;;;5070829;28;20016;-65
2021/03/28 13:23:47;;;;;;;4.60;1.40;;;18.80;32.80;;;;;;5066068;28;20020;-65
2021/03/28 13:26:15;;;;;;;2.50;1.10;;;18.90;32.00;;;;;;5055878;28;20063;-65
2021/03/28 13:29:02;;;;;;;4.55;1.58;;;19.00;32.10;;;;;;5056102;28;20028;-66
2021/03/28 13:31:56;;;;;;;5.25;1.25;;;19.20;32.50;;;;;;5035170;28;20064;-65
2021/03/28 13:34:37;;;;;;;6.20;1.30;;;19.50;32.60;;;;;;5040478;28;20028;-65
2021/03/28 13:37:03;;;;;;;5.00;1.38;;;19.60;32.20;;;;;;5055764;28;20024;-66
2021/03/28 13:39:33;;;;;;;4.28;1.33;;;19.80;31.60;;;;;;5055310;28;20082;-64
2021/03/28 13:41:58;;;;;;;3.67;1.58;;;19.80;29.90;;;;;;5055724;28;20031;-65
2021/03/28 13:44:48;;;;;;;4.13;1.25;;;19.70;30.50;;;;;;5055113;28;20028;-65
2021/03/28 13:47:14;;;;;;;3.33;1.23;;;19.80;30.60;;;;;;5055998;28;20028;-67
2021/03/28 13:49:51;;;;;;;4.28;1.55;;;19.70;30.40;;;;;;5038365;28;20036;-65
2021/03/28 13:52:27;;;;;;;3.42;0.93;;;19.70;29.90;;;;;;5063442;28;20038;-65
2021/03/28 13:55:27;;;;;;;5.53;1.40;;;19.50;30.10;;;;;;5074274;28;20024;-65
2021/03/28 13:57:52;;;;;;;3.25;1.00;;;19.20;30.60;;;;;;5035796;28;20067;-65
2021/03/28 14:00:38;;;;;;;4.65;1.63;;;18.90;30.80;;;;;;5035424;28;20110;-64
2021/03/28 14:03:17;;;;;;;6.15;1.17;;;18.60;31.40;;;;;;5040004;28;20032;-65
2021/03/28 14:05:46;;;;;;;4.25;1.83;;;18.40;31.90;;;;;;5050833;28;20154;-65
2021/03/28 14:08:17;;;;;;;2.45;1.00;;;18.20;32.20;;;;;;5053579;28;20511;-66
2021/03/28 14:11:01;;;;;;;3.28;1.35;;;18.10;32.60;;;;;;5055421;28;20044;-64
2021/03/28 14:13:37;;;;;;;6.47;1.67;;;18.00;32.30;;;;;;5054993;28;20028;-64
2021/03/28 14:16:03;;;;;;;8.30;1.65;;;17.80;32.20;;;;;;5054340;28;20029;-65
2021/03/28 14:18:44;;;;;;;5.10;1.30;;;17.70;32.10;;;;;;5046691;28;20033;-66
2021/03/28 14:21:27;;;;;;;4.70;1.42;;;17.40;31.60;;;;;;5061829;28;20020;-64
2021/03/28 14:23:58;;;;;;;2.53;1.13;;;17.20;32.20;;;;;;5054423;28;21398;-65
2021/03/28 14:26:50;;;;;;;4.10;1.40;;;17.10;32.80;;;;;;5055054;28;20052;-64